Time;durP1;ratioP1;P1;durP2;ratioP2;P2;SDS_P1;SDS_P2;PMS_P1;PMS_P2;Temp;Humidity;BMP_temperature;BMP_pressure;BME280_temperature;BME280_humidity;BME280_pressure;Samples;Min_cycle;Max_cycle;Signal;HPM_P1;HPM_P2
2023/05/30 00:00:25;;;;;;;6.05;4.65;;;25.40;99.90;;;;;;5031406;22;20014;-54
2023/05/30 00:02:51;;;;;;;7.03;4.10;;;25.40;99.90;;;;;;5033593;28;20064;-55
2023/05/30 00:05:17;;;;;;;6.07;4.03;;;25.40;99.90;;;;;;5033520;28;20029;-54
2023/05/30 00:07:43;;;;;;;6.72;4.25;;;25.40;99.90;;;;;;5033651;28;20512;-54
2023/05/30 00:10:09;;;;;;;4.43;3.47;;;25.40;99.90;;;;;;5033544;28;20049;-53
2023/05/30 00:12:35;;;;;;;5.28;3.80;;;25.40;99.90;;;;;;5033395;28;20026;-53
2023/05/30 00:15:04;;;;;;;5.50;3.85;;;25.40;99.90;;;;;;5033249;28;20401;-52
2023/05/30 00:17:32;;;;;;;7.75;3.78;;;25.40;99.90;;;;;;5033335;28;20029;-53
2023/05/30 00:19:59;;;;;;;;;;;25.40;99.90;;;;;;5031745;28;20036;-51
2023/05/30 00:22:25;;;;;;;4.50;3.58;;;25.40;99.90;;;;;;5033285;28;19916;-52
2023/05/30 00:24:51;;;;;;;4.88;3.70;;;25.40;99.90;;;;;;5033235;28;20482;-53
2023/05/30 00:27:18;;;;;;;6.38;4.20;;;25.40;99.90;;;;;;5032962;28;20033;-54
2023/05/30 00:29:45;;;;;;;4.40;3.60;;;25.30;99.90;;;;;;5033412;28;20025;-52
2023/05/30 00:32:12;;;;;;;6.32;4.13;;;25.30;99.90;;;;;;5033065;28;20032;-51
2023/05/30 00:34:37;;;;;;;5.15;3.50;;;25.30;99.90;;;;;;5033097;28;20055;-52
2023/05/30 00:37:05;;;;;;;6.38;4.13;;;25.30;99.90;;;;;;5033076;28;20021;-52
2023/05/30 00:39:31;;;;;;;4.88;3.53;;;25.30;99.90;;;;;;5033083;28;20462;-52
2023/05/30 00:41:57;;;;;;;5.70;3.80;;;25.30;99.90;;;;;;5032781;28;20429;-53
2023/05/30 00:44:23;;;;;;;4.85;3.38;;;25.30;99.90;;;;;;5032824;28;20028;-54
2023/05/30 00:46:51;;;;;;;5.13;3.30;;;25.30;99.90;;;;;;5032610;28;20021;-54
2023/05/30 00:49:17;;;;;;;4.80;3.70;;;25.30;99.90;;;;;;5031497;28;20052;-52
2023/05/30 00:51:43;;;;;;;4.68;3.60;;;25.30;99.90;;;;;;5031622;28;20127;-54
2023/05/30 00:54:09;;;;;;;5.45;3.60;;;25.30;99.90;;;;;;5032954;28;20072;-53
2023/05/30 00:56:35;;;;;;;5.20;3.78;;;25.30;99.90;;;;;;5032366;28;20067;-52
2023/05/30 00:59:02;;;;;;;5.13;3.15;;;25.30;99.90;;;;;;5019882;28;20017;-52
2023/05/30 01:01:29;;;;;;;5.38;3.55;;;25.30;99.90;;;;;;5035407;22;20054;-57
2023/05/30 01:03:55;;;;;;;4.60;3.35;;;25.30;99.90;;;;;;5012885;28;20076;-55
2023/05/30 01:06:22;;;;;;;4.28;3.28;;;25.20;99.90;;;;;;5013021;28;20030;-56
2023/05/30 01:08:48;;;;;;;6.68;3.90;;;25.20;99.90;;;;;;5013144;28;20108;-56
2023/05/30 01:11:30;;;;;;;5.20;3.50;;;25.20;99.90;;;;;;5012762;28;20107;-55
2023/05/30 01:14:08;;;;;;;4.97;3.38;;;25.20;99.90;;;;;;5012861;28;20022;-56
2023/05/30 01:16:43;;;;;;;5.88;3.92;;;25.20;99.90;;;;;;5013024;28;20160;-55
2023/05/30 01:19:33;;;;;;;4.93;3.30;;;25.20;99.90;;;;;;5011392;28;20069;-56
2023/05/30 01:22:16;;;;;;;4.88;3.25;;;25.20;99.90;;;;;;5013134;28;20038;-56
2023/05/30 01:24:50;;;;;;;4.03;3.00;;;25.20;99.90;;;;;;5012919;28;20101;-56
2023/05/30 01:27:40;;;;;;;4.03;3.25;;;25.20;99.90;;;;;;5012575;28;20543;-56
2023/05/30 01:30:09;;;;;;;4.53;3.30;;;25.20;99.90;;;;;;5012721;28;20120;-59
2023/05/30 01:32:35;;;;;;;5.93;3.47;;;25.20;99.90;;;;;;5012823;28;20033;-56
2023/05/30 01:35:01;;;;;;;5.68;3.25;;;25.20;99.90;;;;;;5012616;28;20471;-56
2023/05/30 01:37:26;;;;;;;5.05;3.17;;;25.20;99.90;;;;;;5012723;28;20034;-56
2023/05/30 01:39:52;;;;;;;3.85;2.90;;;25.20;99.90;;;;;;5012778;28;20049;-56
2023/05/30 01:42:25;;;;;;;3.70;2.95;;;25.10;99.90;;;;;;5012327;28;20041;-56
2023/05/30 01:44:53;;;;;;;7.15;3.35;;;25.20;99.90;;;;;;5012751;28;20455;-56
2023/05/30 01:47:26;;;;;;;3.47;2.80;;;25.20;99.90;;;;;;4998262;28;20019;-56
2023/05/30 01:50:01;;;;;;;5.03;3.50;;;25.20;99.90;;;;;;5012876;28;20049;-57
2023/05/30 01:52:32;;;;;;;5.07;3.00;;;25.10;99.90;;;;;;5016467;28;20045;-57
2023/05/30 01:55:03;;;;;;;5.28;3.47;;;25.10;99.90;;;;;;5016299;28;20040;-57
2023/05/30 01:57:30;;;;;;;4.07;2.70;;;25.20;99.90;;;;;;5016125;28;20018;-57
2023/05/30 02:00:06;;;;;;;3.90;3.10;;;25.10;99.90;;;;;;5016120;28;20052;-61
2023/05/30 02:02:32;;;;;;;4.13;2.70;;;25.10;99.90;;;;;;5015939;28;20045;-57
2023/05/30 02:04:57;;;;;;;4.50;2.85;;;25.10;99.90;;;;;;5014689;28;20022;-57
2023/05/30 02:07:23;;;;;;;3.72;2.63;;;25.10;99.90;;;;;;5015840;28;20038;-57
2023/05/30 02:09:49;;;;;;;5.28;2.75;;;25.10;99.90;;;;;;5015903;28;20022;-56
2023/05/30 02:12:15;;;;;;;3.83;2.40;;;25.10;99.90;;;;;;5015536;28;20381;-57
2023/05/30 02:14:43;;;;;;;5.63;3.10;;;25.10;99.90;;;;;;5015953;28;20025;-56
2023/05/30 02:17:09;;;;;;;3.97;2.95;;;25.10;99.90;;;;;;5016025;28;20165;-56
2023/05/30 02:19:35;;;;;;;3.67;2.67;;;25.10;99.90;;;;;;5015609;28;20100;-58
2023/05/30 02:22:00;;;;;;;4.00;2.75;;;25.10;99.90;;;;;;5015636;28;20046;-57
2023/05/30 02:24:26;;;;;;;4.85;2.40;;;25.10;99.90;;;;;;5014346;28;20026;-56
2023/05/30 02:26:52;;;;;;;4.25;2.65;;;25.00;99.90;;;;;;5015515;28;20528;-57
2023/05/30 02:29:18;;;;;;;4.35;2.95;;;25.00;99.90;;;;;;5031161;28;20029;-56
2023/05/30 02:31:43;;;;;;;4.53;2.50;;;25.00;99.90;;;;;;5015614;28;20057;-57
2023/05/30 02:34:09;;;;;;;4.32;2.92;;;25.00;99.90;;;;;;5015262;28;20064;-57
2023/05/30 02:36:38;;;;;;;3.40;2.60;;;25.00;99.90;;;;;;5015491;28;20065;-57
2023/05/30 02:39:07;;;;;;;5.40;3.00;;;25.00;99.90;;;;;;5015363;28;20006;-57
2023/05/30 02:41:33;;;;;;;3.30;2.42;;;25.00;99.90;;;;;;5015129;28;20121;-57
2023/05/30 02:43:59;;;;;;;4.63;2.70;;;25.00;99.90;;;;;;5015025;28;20090;-57
2023/05/30 02:46:25;;;;;;;4.22;2.80;;;25.00;99.90;;;;;;5015212;28;20025;-57
2023/05/30 02:48:51;;;;;;;4.20;3.03;;;25.00;99.90;;;;;;5014822;28;20029;-57
2023/05/30 02:51:16;;;;;;;4.28;3.38;;;25.00;99.90;;;;;;5015275;28;20034;-56
2023/05/30 02:53:42;;;;;;;6.65;2.83;;;25.00;99.90;;;;;;5013721;28;20029;-57
2023/05/30 02:56:08;;;;;;;4.97;2.60;;;25.00;99.90;;;;;;5015170;28;20076;-57
2023/05/30 02:58:33;;;;;;;4.47;2.42;;;25.00;99.90;;;;;;5014850;28;20022;-57
2023/05/30 03:00:59;;;;;;;3.45;2.50;;;25.00;99.90;;;;;;5015323;28;20073;-56
2023/05/30 03:03:25;;;;;;;4.75;3.20;;;25.00;99.90;;;;;;5027970;28;20021;-57
2023/05/30 03:05:51;;;;;;;4.60;2.67;;;25.00;99.90;;;;;;5015000;28;20470;-56
2023/05/30 03:08:17;;;;;;;4.00;2.42;;;25.00;99.90;;;;;;5014795;28;20033;-56
2023/05/30 03:10:43;;;;;;;4.68;2.78;;;25.00;99.90;;;;;;5014651;28;20018;-56
2023/05/30 03:13:09;;;;;;;3.88;2.70;;;25.00;99.90;;;;;;5014669;28;20029;-57
2023/05/30 03:15:35;;;;;;;3.92;2.53;;;25.00;99.90;;;;;;5014646;28;20121;-56
2023/05/30 03:18:00;;;;;;;5.13;2.63;;;25.00;99.90;;;;;;5014497;28;20033;-57
2023/05/30 03:20:28;;;;;;;4.57;2.47;;;25.00;99.90;;;;;;5014321;28;20105;-57
2023/05/30 03:22:54;;;;;;;2.65;2.35;;;24.90;99.90;;;;;;5014540;28;20105;-57
2023/05/30 03:25:19;;;;;;;3.97;2.88;;;24.90;99.90;;;;;;5013303;28;20104;-57
2023/05/30 03:27:50;;;;;;;3.20;2.50;;;24.90;99.90;;;;;;5014493;28;20017;-56
2023/05/30 03:30:17;;;;;;;4.20;2.58;;;24.90;99.90;;;;;;5014539;28;20121;-57
2023/05/30 03:32:42;;;;;;;4.03;2.47;;;24.90;99.90;;;;;;5014258;28;20449;-56
2023/05/30 03:35:08;;;;;;;3.42;2.22;;;24.90;99.90;;;;;;5014346;28;20026;-56
2023/05/30 03:37:34;;;;;;;3.63;2.30;;;24.90;99.90;;;;;;5014293;28;20389;-57
2023/05/30 03:40:00;;;;;;;4.40;2.50;;;24.90;99.90;;;;;;5014450;28;20026;-56
2023/05/30 03:42:26;;;;;;;4.18;2.30;;;24.90;99.90;;;;;;5013008;28;20030;-57
2023/05/30 03:44:52;;;;;;;3.60;2.90;;;24.90;99.90;;;;;;5012622;28;20026;-57
2023/05/30 03:47:17;;;;;;;2.63;1.95;;;24.90;99.90;;;;;;5014184;28;20030;-56
2023/05/30 03:49:43;;;;;;;4.32;2.78;;;24.90;99.90;;;;;;5013740;28;20024;-57
2023/05/30 03:52:09;;;;;;;3.38;2.60;;;24.90;99.90;;;;;;5013892;28;20056;-57
2023/05/30 03:54:35;;;;;;;3.72;2.85;;;24.90;99.90;;;;;;5013944;28;20029;-57
2023/05/30 03:57:01;;;;;;;4.55;2.70;;;24.80;99.90;;;;;;5013640;28;20026;-57
2023/05/30 03:59:27;;;;;;;3.17;2.40;;;24.80;99.90;;;;;;5014047;28;20532;-56
2023/05/30 04:01:53;;;;;;;3.45;2.50;;;24.80;99.90;;;;;;5013935;28;20299;-56
2023/05/30 04:04:19;;;;;;;2.90;2.10;;;24.80;99.90;;;;;;5013690;28;20497;-56
2023/05/30 04:06:45;;;;;;;3.47;2.50;;;24.80;99.90;;;;;;5013847;28;20034;-56
2023/05/30 04:09:11;;;;;;;3.55;2.47;;;24.80;99.90;;;;;;5000872;28;20064;-56
2023/05/30 04:11:37;;;;;;;3.00;2.53;;;24.80;99.90;;;;;;5013644;28;20026;-56
2023/05/30 04:14:03;;;;;;;3.55;2.25;;;24.80;99.90;;;;;;5013069;28;20381;-57
2023/05/30 04:16:29;;;;;;;3.40;2.38;;;24.80;99.90;;;;;;5013562;28;20034;-56
2023/05/30 04:18:55;;;;;;;3.58;2.35;;;24.80;99.90;;;;;;5013306;28;20043;-57
2023/05/30 04:21:20;;;;;;;2.65;2.03;;;24.80;99.90;;;;;;5013810;28;20121;-57
2023/05/30 04:23:46;;;;;;;2.88;1.73;;;24.80;99.90;;;;;;5013380;28;20101;-56
2023/05/30 04:26:12;;;;;;;3.05;2.20;;;24.80;99.90;;;;;;5021718;28;20033;-57
2023/05/30 04:28:38;;;;;;;3.10;2.33;;;24.80;99.90;;;;;;5018145;28;20032;-57
2023/05/30 04:31:05;;;;;;;3.10;2.17;;;24.80;99.90;;;;;;5013417;28;20026;-56
2023/05/30 04:33:35;;;;;;;2.85;2.33;;;24.80;99.90;;;;;;5013109;28;20022;-57
2023/05/30 04:36:06;;;;;;;3.70;2.20;;;24.70;99.90;;;;;;5011935;28;20084;-56
2023/05/30 04:38:34;;;;;;;3.15;2.17;;;24.70;99.90;;;;;;5013139;28;20046;-57
2023/05/30 04:41:02;;;;;;;3.90;2.65;;;24.80;99.90;;;;;;5011702;28;20404;-56
2023/05/30 04:43:28;;;;;;;;;;;24.70;99.90;;;;;;5013492;28;20018;-57
2023/05/30 04:45:54;;;;;;;2.55;1.80;;;24.70;99.90;;;;;;5013313;28;19905;-57
2023/05/30 04:48:21;;;;;;;4.32;2.50;;;24.70;99.90;;;;;;5012900;28;20029;-57
2023/05/30 04:50:47;;;;;;;3.13;1.85;;;24.80;99.90;;;;;;5028074;28;20014;-57
2023/05/30 04:53:16;;;;;;;5.05;2.65;;;24.70;99.90;;;;;;5013111;28;20083;-56
2023/05/30 04:55:44;;;;;;;3.58;2.13;;;24.70;99.90;;;;;;5011885;28;20354;-57
2023/05/30 04:58:11;;;;;;;3.15;2.08;;;24.70;99.90;;;;;;5012870;28;20026;-57
2023/05/30 05:00:38;;;;;;;3.83;2.22;;;24.70;99.90;;;;;;5012794;28;20041;-57
2023/05/30 05:03:05;;;;;;;2.53;1.95;;;24.70;99.90;;;;;;5012570;28;20034;-57
2023/05/30 05:05:31;;;;;;;3.50;2.22;;;24.70;99.90;;;;;;5013059;28;20022;-57
2023/05/30 05:07:57;;;;;;;4.03;2.22;;;24.70;99.90;;;;;;5012853;28;20034;-57
2023/05/30 05:10:24;;;;;;;5.32;2.22;;;24.70;99.90;;;;;;5012745;28;20133;-57
2023/05/30 05:12:50;;;;;;;4.18;2.20;;;24.70;99.90;;;;;;5012687;28;20450;-57
2023/05/30 05:15:15;;;;;;;2.05;1.80;;;24.70;99.90;;;;;;5012791;28;20029;-57
2023/05/30 05:17:42;;;;;;;3.70;2.58;;;24.70;99.90;;;;;;5012693;28;20073;-58
2023/05/30 05:20:08;;;;;;;3.85;1.95;;;24.70;99.90;;;;;;5012741;28;20064;-57
2023/05/30 05:22:35;;;;;;;2.78;1.63;;;24.70;99.90;;;;;;5012795;28;20088;-57
2023/05/30 05:25:01;;;;;;;2.45;2.00;;;24.70;99.90;;;;;;5013333;28;20477;-56
2023/05/30 05:27:28;;;;;;;4.68;2.20;;;24.70;99.90;;;;;;5016613;28;20072;-57
2023/05/30 05:29:54;;;;;;;2.67;2.10;;;24.70;99.90;;;;;;5016755;28;20026;-58
2023/05/30 05:32:20;;;;;;;3.10;2.03;;;24.70;99.90;;;;;;5016649;28;20427;-58
2023/05/30 05:34:46;;;;;;;2.75;1.73;;;24.70;99.90;;;;;;5016341;28;20030;-58
2023/05/30 05:37:12;;;;;;;3.72;2.15;;;24.70;99.90;;;;;;5016526;28;20040;-58
2023/05/30 05:39:38;;;;;;;4.10;2.38;;;24.70;99.90;;;;;;5014967;28;20030;-57
2023/05/30 05:42:04;;;;;;;3.03;2.15;;;24.70;99.90;;;;;;5016146;28;20034;-57
2023/05/30 05:44:30;;;;;;;4.72;2.45;;;24.70;99.90;;;;;;5016214;28;20481;-56
2023/05/30 05:46:56;;;;;;;4.95;2.03;;;24.70;99.90;;;;;;5016337;28;20465;-57
2023/05/30 05:49:22;;;;;;;3.45;1.90;;;24.70;99.90;;;;;;5016038;28;20062;-56
2023/05/30 05:51:48;;;;;;;3.97;1.98;;;24.70;99.90;;;;;;5016113;28;20107;-56
2023/05/30 05:54:14;;;;;;;2.88;2.08;;;24.70;99.90;;;;;;5016216;28;20022;-57
2023/05/30 05:56:40;;;;;;;4.72;2.35;;;24.70;99.90;;;;;;5015875;28;20022;-57
2023/05/30 05:59:06;;;;;;;4.00;2.50;;;24.70;99.90;;;;;;5016299;28;20037;-57
2023/05/30 06:01:32;;;;;;;3.30;2.30;;;24.70;99.90;;;;;;5016041;28;20050;-56
2023/05/30 06:04:08;;;;;;;3.92;2.50;;;24.70;99.90;;;;;;5015955;28;20417;-56
2023/05/30 06:06:34;;;;;;;2.75;1.95;;;24.70;99.90;;;;;;5016006;28;20109;-57
2023/05/30 06:09:00;;;;;;;4.22;2.28;;;24.70;99.90;;;;;;5016069;28;20037;-57
2023/05/30 06:11:26;;;;;;;4.53;2.58;;;24.60;99.90;;;;;;5015821;28;20417;-57
2023/05/30 06:13:52;;;;;;;3.78;2.03;;;24.70;99.90;;;;;;5016132;28;20033;-57
2023/05/30 06:16:17;;;;;;;4.13;2.65;;;24.70;99.90;;;;;;5015822;28;20029;-57
2023/05/30 06:18:43;;;;;;;5.38;2.50;;;24.60;99.90;;;;;;5015473;28;20105;-57
2023/05/30 06:21:10;;;;;;;3.67;2.60;;;24.70;99.90;;;;;;5015988;28;20049;-57
2023/05/30 06:23:37;;;;;;;3.58;2.47;;;24.70;99.90;;;;;;5019451;28;20014;-57
2023/05/30 06:26:02;;;;;;;4.47;2.70;;;24.70;99.90;;;;;;5025009;28;20375;-56
2023/05/30 06:28:28;;;;;;;3.65;2.30;;;24.70;99.90;;;;;;5015608;28;20033;-56
2023/05/30 06:30:54;;;;;;;3.25;1.88;;;24.70;99.90;;;;;;5015683;28;20096;-56
2023/05/30 06:33:23;;;;;;;3.92;2.55;;;24.70;99.90;;;;;;5015359;28;20036;-56
2023/05/30 06:35:49;;;;;;;4.30;2.72;;;24.70;99.90;;;;;;5015089;28;20033;-56
2023/05/30 06:38:16;;;;;;;3.53;2.28;;;24.70;99.90;;;;;;5015372;28;20378;-56
2023/05/30 06:40:42;;;;;;;4.60;2.53;;;24.70;99.90;;;;;;5015284;28;20037;-56
2023/05/30 06:43:08;;;;;;;3.83;2.30;;;24.70;99.90;;;;;;5015298;28;20029;-57
2023/05/30 06:45:34;;;;;;;4.53;2.45;;;24.70;99.90;;;;;;5015456;28;20385;-57
2023/05/30 06:48:01;;;;;;;5.00;2.83;;;24.70;99.90;;;;;;5015013;28;20377;-56
2023/05/30 06:50:27;;;;;;;5.45;2.55;;;24.70;99.90;;;;;;5000671;28;20021;-57
2023/05/30 06:52:53;;;;;;;3.45;2.30;;;24.70;99.90;;;;;;5015139;28;20041;-57
2023/05/30 06:55:19;;;;;;;4.03;2.63;;;24.70;99.90;;;;;;5014910;28;20021;-56
2023/05/30 06:57:45;;;;;;;3.80;2.53;;;24.70;99.90;;;;;;5030223;28;20026;-57
2023/05/30 07:00:11;;;;;;;4.15;2.67;;;24.70;99.90;;;;;;5014998;28;20068;-56
2023/05/30 07:02:37;;;;;;;5.45;2.65;;;24.70;99.90;;;;;;5013543;28;20050;-57
2023/05/30 07:05:03;;;;;;;3.22;2.17;;;24.70;99.90;;;;;;5014971;28;20371;-56
2023/05/30 07:07:29;;;;;;;3.33;2.38;;;24.70;99.90;;;;;;5014820;28;20359;-57
2023/05/30 07:09:55;;;;;;;5.50;2.40;;;24.70;99.90;;;;;;5015083;28;20022;-57
2023/05/30 07:12:21;;;;;;;3.83;2.97;;;24.70;99.90;;;;;;5014517;28;20026;-56
2023/05/30 07:14:47;;;;;;;4.28;2.30;;;24.70;99.90;;;;;;5014543;28;20049;-57
2023/05/30 07:17:13;;;;;;;4.75;2.38;;;24.70;99.90;;;;;;5020227;28;20021;-57
2023/05/30 07:19:39;;;;;;;5.22;2.70;;;24.80;99.90;;;;;;5021686;28;20034;-56
2023/05/30 07:22:06;;;;;;;3.50;2.53;;;24.70;99.90;;;;;;5014340;28;20036;-57
2023/05/30 07:24:31;;;;;;;3.20;2.40;;;24.80;99.90;;;;;;5014717;28;20026;-57
2023/05/30 07:26:57;;;;;;;3.30;2.33;;;24.80;99.90;;;;;;5014391;28;20100;-57
2023/05/30 07:29:23;;;;;;;5.10;2.80;;;24.80;99.90;;;;;;5014643;28;20026;-57
2023/05/30 07:31:49;;;;;;;3.85;2.70;;;24.70;99.90;;;;;;5014501;28;20036;-57
2023/05/30 07:34:14;;;;;;;3.83;2.25;;;24.80;99.90;;;;;;5014247;28;20107;-56
2023/05/30 07:36:40;;;;;;;3.25;2.42;;;24.80;99.90;;;;;;5014158;28;20060;-56
2023/05/30 07:39:06;;;;;;;3.85;2.63;;;24.80;99.90;;;;;;5014434;28;20026;-56
2023/05/30 07:41:32;;;;;;;6.60;2.92;;;24.80;99.90;;;;;;5014092;28;20026;-56
2023/05/30 07:43:57;;;;;;;4.57;2.75;;;24.80;99.90;;;;;;5014478;28;20061;-57
2023/05/30 07:46:23;;;;;;;4.50;2.65;;;24.80;99.90;;;;;;5014145;28;20025;-57
2023/05/30 07:48:49;;;;;;;4.47;2.33;;;24.80;99.90;;;;;;5013376;28;20022;-57
2023/05/30 07:51:17;;;;;;;4.97;2.60;;;24.80;99.90;;;;;;5014287;28;20025;-57
2023/05/30 07:53:43;;;;;;;4.03;2.75;;;24.80;99.90;;;;;;5013936;28;20485;-57
2023/05/30 07:56:08;;;;;;;3.70;2.72;;;24.80;99.90;;;;;;5014007;28;20022;-56
2023/05/30 07:58:34;;;;;;;4.35;2.70;;;24.80;99.90;;;;;;5027249;28;20327;-56
2023/05/30 08:01:00;;;;;;;3.38;2.22;;;24.80;99.90;;;;;;5013734;28;20046;-56
2023/05/30 08:03:26;;;;;;;4.47;2.58;;;24.80;99.90;;;;;;5013791;28;20535;-56
2023/05/30 08:05:52;;;;;;;4.43;2.28;;;24.80;99.90;;;;;;5013697;28;20057;-56
2023/05/30 08:08:18;;;;;;;4.18;2.40;;;24.80;99.90;;;;;;5013863;28;20072;-56
2023/05/30 08:10:44;;;;;;;3.30;2.50;;;24.80;99.90;;;;;;5013825;28;20022;-55
2023/05/30 08:13:13;;;;;;;3.70;2.30;;;24.90;99.90;;;;;;5013855;28;20037;-56
2023/05/30 08:15:39;;;;;;;4.60;2.92;;;24.80;99.90;;;;;;5013852;28;20022;-56
2023/05/30 08:18:05;;;;;;;5.53;2.70;;;24.90;99.90;;;;;;5013534;28;20022;-56
2023/05/30 08:20:31;;;;;;;4.28;2.42;;;24.90;99.90;;;;;;5013592;28;20044;-56
2023/05/30 08:22:58;;;;;;;7.45;3.00;;;24.90;99.90;;;;;;5013639;28;20056;-56
2023/05/30 08:25:24;;;;;;;2.90;2.50;;;24.90;99.90;;;;;;5025145;28;20375;-56
2023/05/30 08:27:53;;;;;;;3.53;2.60;;;24.90;99.90;;;;;;5013758;28;20084;-55
2023/05/30 08:30:19;;;;;;;4.95;2.90;;;24.90;99.90;;;;;;5013576;28;20026;-55
2023/05/30 08:32:45;;;;;;;5.07;2.90;;;24.90;99.90;;;;;;5013228;28;20377;-56
2023/05/30 08:35:11;;;;;;;4.25;2.70;;;24.90;99.90;;;;;;5013428;28;20026;-57
2023/05/30 08:37:37;;;;;;;4.22;2.63;;;24.90;99.90;;;;;;5013519;28;20022;-56
2023/05/30 08:40:03;;;;;;;3.80;3.25;;;24.90;99.90;;;;;;5013450;28;20036;-56
2023/05/30 08:42:29;;;;;;;3.85;3.45;;;24.90;99.90;;;;;;5013255;28;20121;-56
2023/05/30 08:44:55;;;;;;;4.57;2.78;;;24.90;99.90;;;;;;5026372;28;20047;-56
2023/05/30 08:47:21;;;;;;;3.95;3.13;;;24.90;99.90;;;;;;5013213;28;20120;-56
2023/05/30 08:49:51;;;;;;;5.88;3.20;;;24.90;99.90;;;;;;5028258;28;20022;-56
2023/05/30 08:52:18;;;;;;;3.78;2.90;;;24.90;99.90;;;;;;5013011;28;20492;-56
2023/05/30 08:55:16;;;;;;;4.13;3.00;;;24.90;99.90;;;;;;5013287;28;20105;-56
2023/05/30 08:58:00;;;;;;;5.38;3.40;;;24.90;99.90;;;;;;5013246;28;20025;-56
2023/05/30 09:00:26;;;;;;;6.68;3.80;;;24.90;99.90;;;;;;5011383;28;20420;-56
2023/05/30 09:02:57;;;;;;;5.78;3.80;;;24.90;99.90;;;;;;5011842;28;20500;-56
2023/05/30 09:05:24;;;;;;;6.28;4.45;;;24.90;99.90;;;;;;5013256;28;20398;-56
2023/05/30 09:07:51;;;;;;;4.97;3.87;;;24.90;99.90;;;;;;5011919;28;20022;-56
2023/05/30 09:10:19;;;;;;;6.30;4.40;;;24.90;99.90;;;;;;5011608;28;20030;-57
2023/05/30 09:12:45;;;;;;;5.85;4.25;;;25.00;99.90;;;;;;5013007;28;20030;-56
2023/05/30 09:15:11;;;;;;;8.48;4.00;;;25.00;99.90;;;;;;5013013;28;20026;-56
2023/05/30 09:17:37;;;;;;;5.90;4.80;;;25.00;99.90;;;;;;5013097;28;20113;-56
2023/05/30 09:20:05;;;;;;;7.68;4.25;;;25.00;99.90;;;;;;5012757;28;20054;-56
2023/05/30 09:22:31;;;;;;;7.97;4.18;;;25.00;99.90;;;;;;5013006;28;20030;-55
2023/05/30 09:25:02;;;;;;;8.13;4.60;;;25.00;99.90;;;;;;5011508;28;20026;-56
2023/05/30 09:27:32;;;;;;;6.28;4.30;;;25.00;99.90;;;;;;5012734;28;20029;-56
2023/05/30 09:30:09;;;;;;;5.75;4.80;;;25.00;99.90;;;;;;5011840;28;20068;-55
2023/05/30 09:32:36;;;;;;;6.45;4.68;;;25.00;99.90;;;;;;5001361;28;20385;-55
2023/05/30 09:35:04;;;;;;;;;;;25.00;99.90;;;;;;5013056;28;20034;-56
2023/05/30 09:37:41;;;;;;;5.97;4.63;;;25.00;99.90;;;;;;5012936;28;19909;-56
2023/05/30 09:40:16;;;;;;;6.37;4.80;;;25.00;99.90;;;;;;5012825;28;20034;-58
2023/05/30 09:42:43;;;;;;;5.90;5.03;;;25.00;99.90;;;;;;5012757;28;20803;-56
2023/05/30 09:45:13;;;;;;;7.55;4.97;;;25.00;99.90;;;;;;5012641;28;20037;-56
2023/05/30 09:47:47;;;;;;;7.32;4.85;;;25.00;99.90;;;;;;5012830;28;20490;-56
2023/05/30 09:50:14;;;;;;;8.88;5.00;;;25.00;99.90;;;;;;5012617;28;20148;-56
2023/05/30 09:52:41;;;;;;;;;;;25.00;99.90;;;;;;5011873;28;20541;-56
2023/05/30 09:55:08;;;;;;;6.55;4.85;;;25.00;99.90;;;;;;5012652;28;19905;-57
2023/05/30 09:57:36;;;;;;;8.52;5.68;;;25.00;99.90;;;;;;5018255;28;20026;-56
2023/05/30 10:00:11;;;;;;;8.77;6.15;;;25.00;99.90;;;;;;5017700;28;20049;-56
2023/05/30 10:02:41;;;;;;;8.00;5.07;;;25.00;99.90;;;;;;5012438;28;20046;-55
2023/05/30 10:05:18;;;;;;;7.85;5.30;;;25.00;99.90;;;;;;5012479;28;20406;-55
2023/05/30 10:07:46;;;;;;;6.63;5.20;;;25.00;99.90;;;;;;5012554;28;20033;-55
2023/05/30 10:10:16;;;;;;;9.35;5.45;;;25.10;99.90;;;;;;5012454;28;20022;-55
2023/05/30 10:12:43;;;;;;;7.32;5.18;;;25.10;99.90;;;;;;5015338;28;20076;-56
2023/05/30 10:15:10;;;;;;;12.98;6.35;;;25.10;99.90;;;;;;5016158;28;20026;-55
2023/05/30 10:17:43;;;;;;;7.75;5.80;;;25.10;99.90;;;;;;5016214;28;20029;-56
2023/05/30 10:20:12;;;;;;;9.00;6.35;;;25.10;99.90;;;;;;5015894;28;20084;-56
2023/05/30 10:22:43;;;;;;;8.63;6.05;;;25.00;99.90;;;;;;5016007;28;20445;-56
2023/05/30 10:25:10;;;;;;;7.97;6.18;;;25.10;99.90;;;;;;5014478;28;20433;-56
2023/05/30 10:27:46;;;;;;;7.95;5.60;;;25.10;99.90;;;;;;5015735;28;20022;-56
2023/05/30 10:30:13;;;;;;;8.25;5.45;;;25.10;99.90;;;;;;5030404;28;20101;-55
2023/05/30 10:32:53;;;;;;;8.85;5.82;;;25.10;99.90;;;;;;5015736;28;20022;-56
2023/05/30 10:35:23;;;;;;;10.38;6.47;;;25.10;99.90;;;;;;5015605;28;20104;-55
2023/05/30 10:37:50;;;;;;;9.18;5.82;;;25.10;99.90;;;;;;5015636;28;20109;-55
2023/05/30 10:41:03;;;;;;;8.55;6.00;;;25.10;99.90;;;;;;5015605;28;20096;-56
2023/05/30 10:43:56;;;;;;;8.52;6.13;;;25.20;99.90;;;;;;5014432;28;20518;-55
2023/05/30 10:46:40;;;;;;;7.93;6.05;;;25.20;99.90;;;;;;5015177;28;20026;-55
2023/05/30 10:49:12;;;;;;;8.85;6.13;;;25.20;99.90;;;;;;5015480;28;20014;-55
2023/05/30 10:52:03;;;;;;;9.35;5.80;;;25.20;99.90;;;;;;5015528;28;20103;-56
2023/05/30 10:54:34;;;;;;;9.18;5.88;;;25.20;99.90;;;;;;5004341;28;20029;-55
2023/05/30 10:57:01;;;;;;;9.20;5.80;;;25.20;99.90;;;;;;5014960;28;20080;-55
2023/05/30 10:59:27;;;;;;;8.40;5.72;;;25.20;99.90;;;;;;5015298;28;20033;-56
2023/05/30 11:02:04;;;;;;;8.38;4.93;;;25.20;99.90;;;;;;5013845;28;20062;-55
2023/05/30 11:04:38;;;;;;;8.27;5.80;;;25.20;99.90;;;;;;5013857;28;20135;-56
2023/05/30 11:07:06;;;;;;;7.78;5.35;;;25.20;99.90;;;;;;5014988;28;20045;-56
2023/05/30 11:09:32;;;;;;;6.95;5.03;;;25.20;99.90;;;;;;5015242;28;20025;-55
2023/05/30 11:12:00;;;;;;;9.20;5.63;;;25.30;99.90;;;;;;5014976;28;20037;-57
2023/05/30 11:14:30;;;;;;;14.00;5.80;;;25.30;99.90;;;;;;5015099;28;20053;-57
2023/05/30 11:17:05;;;;;;;8.52;5.22;;;25.30;99.90;;;;;;5014716;28;20026;-57
2023/05/30 11:19:45;;;;;;;7.88;5.18;;;25.30;99.90;;;;;;5014714;28;20542;-55
2023/05/30 11:22:17;;;;;;;9.60;5.22;;;25.30;99.90;;;;;;5014343;28;20038;-56
2023/05/30 11:24:44;;;;;;;9.45;4.35;;;25.30;99.90;;;;;;5014436;28;20033;-56
2023/05/30 11:27:13;;;;;;;10.02;4.78;;;25.30;99.90;;;;;;5014419;28;20366;-59
2023/05/30 11:29:53;;;;;;;5.40;4.28;;;25.30;99.90;;;;;;5014700;28;20022;-56
2023/05/30 11:32:23;;;;;;;8.45;4.70;;;25.30;99.90;;;;;;5002189;28;20508;-56
2023/05/30 11:35:04;;;;;;;8.18;4.45;;;25.30;99.90;;;;;;5012981;28;20030;-56
2023/05/30 11:37:35;;;;;;;8.98;5.38;;;25.30;99.90;;;;;;5014615;28;20022;-56
2023/05/30 11:40:01;;;;;;;9.40;4.30;;;25.30;99.90;;;;;;5013049;28;20351;-56
2023/05/30 11:42:28;;;;;;;8.02;3.92;;;25.30;99.90;;;;;;5012774;28;20517;-56
2023/05/30 11:44:54;;;;;;;8.15;4.78;;;25.40;99.90;;;;;;5014239;28;20481;-56
2023/05/30 11:47:20;;;;;;;8.32;4.70;;;25.40;99.90;;;;;;5012929;28;20037;-56
2023/05/30 11:49:46;;;;;;;7.05;4.28;;;25.40;99.90;;;;;;5014000;28;20386;-56
2023/05/30 11:52:14;;;;;;;10.73;5.43;;;25.40;99.90;;;;;;5014217;28;20022;-56
2023/05/30 11:54:40;;;;;;;5.65;4.32;;;25.40;99.90;;;;;;5014003;28;20076;-56
2023/05/30 11:57:08;;;;;;;8.93;4.43;;;25.40;99.90;;;;;;5013982;28;20092;-56
2023/05/30 11:59:33;;;;;;;8.40;4.30;;;25.40;99.90;;;;;;5014208;28;20057;-57
2023/05/30 12:02:01;;;;;;;7.60;4.40;;;25.40;99.90;;;;;;5012669;28;20454;-57
2023/05/30 12:04:30;;;;;;;7.90;4.35;;;25.40;99.90;;;;;;5014366;28;20429;-56
2023/05/30 12:07:03;;;;;;;8.48;4.68;;;25.40;99.90;;;;;;5014233;28;20465;-56
2023/05/30 12:09:37;;;;;;;8.10;4.18;;;25.40;99.90;;;;;;5014039;28;20044;-56
2023/05/30 12:12:03;;;;;;;6.25;4.25;;;25.40;99.90;;;;;;5013600;28;20032;-56
2023/05/30 12:14:30;;;;;;;11.63;4.80;;;25.40;99.90;;;;;;5013884;28;20014;-56
2023/05/30 12:16:56;;;;;;;5.93;4.17;;;25.40;99.90;;;;;;5013869;28;20109;-57
2023/05/30 12:19:29;;;;;;;9.75;4.72;;;25.40;99.90;;;;;;5013660;28;20350;-56
2023/05/30 12:21:55;;;;;;;8.85;3.95;;;25.40;99.90;;;;;;5013651;28;20080;-57
2023/05/30 12:24:25;;;;;;;8.25;5.25;;;25.40;99.90;;;;;;5028958;28;20029;-57
2023/05/30 12:26:55;;;;;;;5.93;4.10;;;25.40;99.90;;;;;;5013600;28;20026;-56
2023/05/30 12:29:25;;;;;;;8.25;4.95;;;25.40;99.90;;;;;;5013553;28;20018;-56
2023/05/30 12:31:52;;;;;;;7.57;4.82;;;25.40;99.90;;;;;;5013689;28;20033;-56
2023/05/30 12:34:21;;;;;;;9.18;4.88;;;25.40;99.90;;;;;;5013076;28;20033;-57
2023/05/30 12:36:48;;;;;;;7.30;4.65;;;25.50;99.90;;;;;;5013532;28;20030;-56
2023/05/30 12:39:14;;;;;;;10.13;5.40;;;25.50;99.90;;;;;;5013516;28;20101;-56
2023/05/30 12:41:40;;;;;;;7.97;4.73;;;25.50;99.90;;;;;;5013468;28;20034;-57
2023/05/30 12:44:07;;;;;;;8.00;4.28;;;25.50;99.90;;;;;;5012063;28;20553;-56
2023/05/30 12:46:36;;;;;;;7.25;4.22;;;25.50;99.90;;;;;;5012214;28;20034;-57
2023/05/30 12:49:03;;;;;;;12.70;4.88;;;25.50;99.90;;;;;;5013279;28;20022;-56
2023/05/30 12:51:29;;;;;;;6.32;3.90;;;25.50;99.90;;;;;;5013320;28;20029;-57